sensor_id;sensor_type;location;lat;lon;timestamp;temperature;humidity
10149;DHT22;5115;50.920;6.376;2023-02-15T00:01:11;4.70;99.90
10149;DHT22;5115;50.920;6.376;2023-02-15T00:03:38;4.80;99.90
10149;DHT22;5115;50.920;6.376;2023-02-15T00:06:04;4.80;99.90
10149;DHT22;5115;50.920;6.376;2023-02-15T00:08:30;4.80;99.90
10149;DHT22;5115;50.920;6.376;2023-02-15T00:11:05;4.90;99.90
10149;DHT22;5115;50.920;6.376;2023-02-15T00:13:31;4.90;99.90
10149;DHT22;5115;50.920;6.376;2023-02-15T00:16:04;4.90;99.90
10149;DHT22;5115;50.920;6.376;2023-02-15T00:18:30;4.90;99.90
10149;DHT22;5115;50.920;6.376;2023-02-15T00:20:55;4.80;99.90
10149;DHT22;5115;50.920;6.376;2023-02-15T00:23:21;4.80;99.90
10149;DHT22;5115;50.920;6.376;2023-02-15T00:25:47;4.80;99.90
10149;DHT22;5115;50.920;6.376;2023-02-15T00:28:12;4.70;99.90
10149;DHT22;5115;50.920;6.376;2023-02-15T00:30:38;4.70;99.90
10149;DHT22;5115;50.920;6.376;2023-02-15T00:33:03;4.70;99.90
10149;DHT22;5115;50.920;6.376;2023-02-15T00:35:29;4.70;99.90
10149;DHT22;5115;50.920;6.376;2023-02-15T00:37:56;4.70;99.90
10149;DHT22;5115;50.920;6.376;2023-02-15T00:40:21;4.70;99.90
10149;DHT22;5115;50.920;6.376;2023-02-15T00:42:47;4.70;99.90
10149;DHT22;5115;50.920;6.376;2023-02-15T00:45:12;4.60;99.90
10149;DHT22;5115;50.920;6.376;2023-02-15T00:47:38;4.60;99.90
10149;DHT22;5115;50.920;6.376;2023-02-15T00:50:04;4.60;99.90
10149;DHT22;5115;50.920;6.376;2023-02-15T00:52:30;4.50;99.90
10149;DHT22;5115;50.920;6.376;2023-02-15T00:54:56;4.50;99.90
10149;DHT22;5115;50.920;6.376;2023-02-15T00:57:21;4.40;99.90
10149;DHT22;5115;50.920;6.376;2023-02-15T00:59:47;4.40;99.90
10149;DHT22;5115;50.920;6.376;2023-02-15T01:02:12;4.40;99.90
10149;DHT22;5115;50.920;6.376;2023-02-15T01:04:38;5.50;99.90
10149;DHT22;5115;50.920;6.376;2023-02-15T01:07:04;4.30;99.90
10149;DHT22;5115;50.920;6.376;2023-02-15T01:09:29;4.30;99.90
10149;DHT22;5115;50.920;6.376;2023-02-15T01:11:55;4.30;99.90
10149;DHT22;5115;50.920;6.376;2023-02-15T01:14:20;4.30;99.90
10149;DHT22;5115;50.920;6.376;2023-02-15T01:16:46;4.30;99.90
10149;DHT22;5115;50.920;6.376;2023-02-15T01:19:12;4.30;99.90
10149;DHT22;5115;50.920;6.376;2023-02-15T01:21:37;4.20;99.90
10149;DHT22;5115;50.920;6.376;2023-02-15T01:24:03;4.20;99.90
10149;DHT22;5115;50.920;6.376;2023-02-15T01:26:29;4.10;99.90
10149;DHT22;5115;50.920;6.376;2023-02-15T01:28:54;4.00;99.90
10149;DHT22;5115;50.920;6.376;2023-02-15T01:31:21;4.10;99.90
10149;DHT22;5115;50.920;6.376;2023-02-15T01:33:47;4.00;99.90
10149;DHT22;5115;50.920;6.376;2023-02-15T01:36:13;4.00;99.90
10149;DHT22;5115;50.920;6.376;2023-02-15T01:38:39;4.00;99.90
10149;DHT22;5115;50.920;6.376;2023-02-15T01:41:05;3.90;99.90
10149;DHT22;5115;50.920;6.376;2023-02-15T01:46:22;3.80;99.90
10149;DHT22;5115;50.920;6.376;2023-02-15T01:48:50;3.70;99.90
10149;DHT22;5115;50.920;6.376;2023-02-15T01:51:21;3.90;99.90
10149;DHT22;5115;50.920;6.376;2023-02-15T01:53:56;3.60;99.90
10149;DHT22;5115;50.920;6.376;2023-02-15T01:56:30;3.60;99.90
10149;DHT22;5115;50.920;6.376;2023-02-15T01:59:00;3.60;99.90
10149;DHT22;5115;50.920;6.376;2023-02-15T02:01:28;2.10;99.90
10149;DHT22;5115;50.920;6.376;2023-02-15T02:04:04;3.30;99.90
10149;DHT22;5115;50.920;6.376;2023-02-15T02:06:33;3.20;99.90
10149;DHT22;5115;50.920;6.376;2023-02-15T02:09:01;3.00;99.90
10149;DHT22;5115;50.920;6.376;2023-02-15T02:11:27;3.00;99.90
10149;DHT22;5115;50.920;6.376;2023-02-15T02:13:53;2.90;99.90
10149;DHT22;5115;50.920;6.376;2023-02-15T02:19:33;2.80;99.90
10149;DHT22;5115;50.920;6.376;2023-02-15T02:27:50;2.80;99.90
10149;DHT22;5115;50.920;6.376;2023-02-15T02:36:05;3.00;99.90
10149;DHT22;5115;50.920;6.376;2023-02-15T02:38:40;3.10;99.90
10149;DHT22;5115;50.920;6.376;2023-02-15T02:44:15;3.10;99.90
10149;DHT22;5115;50.920;6.376;2023-02-15T02:46:51;3.10;99.90
10149;DHT22;5115;50.920;6.376;2023-02-15T02:49:32;3.10;99.90
10149;DHT22;5115;50.920;6.376;2023-02-15T02:52:00;3.10;99.90
10149;DHT22;5115;50.920;6.376;2023-02-15T02:54:27;3.00;99.90
10149;DHT22;5115;50.920;6.376;2023-02-15T02:56:55;2.90;99.90
10149;DHT22;5115;50.920;6.376;2023-02-15T02:59:29;3.00;99.90
10149;DHT22;5115;50.920;6.376;2023-02-15T03:02:01;3.10;99.90
10149;DHT22;5115;50.920;6.376;2023-02-15T03:04:32;3.10;99.90
10149;DHT22;5115;50.920;6.376;2023-02-15T03:07:03;3.20;99.90
10149;DHT22;5115;50.920;6.376;2023-02-15T03:09:33;3.20;99.90
10149;DHT22;5115;50.920;6.376;2023-02-15T03:12:08;3.20;99.90
10149;DHT22;5115;50.920;6.376;2023-02-15T03:14:35;3.30;99.90
10149;DHT22;5115;50.920;6.376;2023-02-15T03:17:02;3.30;99.90
10149;DHT22;5115;50.920;6.376;2023-02-15T03:19:32;3.10;99.90
10149;DHT22;5115;50.920;6.376;2023-02-15T03:22:06;3.30;99.90
10149;DHT22;5115;50.920;6.376;2023-02-15T03:24:43;3.40;99.90
10149;DHT22;5115;50.920;6.376;2023-02-15T03:27:15;3.40;99.90
10149;DHT22;5115;50.920;6.376;2023-02-15T03:29:47;3.40;99.90
10149;DHT22;5115;50.920;6.376;2023-02-15T03:32:15;3.40;99.90
10149;DHT22;5115;50.920;6.376;2023-02-15T03:34:42;3.40;99.90
10149;DHT22;5115;50.920;6.376;2023-02-15T03:37:20;3.40;99.90
10149;DHT22;5115;50.920;6.376;2023-02-15T03:39:59;3.40;99.90
10149;DHT22;5115;50.920;6.376;2023-02-15T03:42:50;3.40;99.90
10149;DHT22;5115;50.920;6.376;2023-02-15T03:45:24;3.30;99.90
10149;DHT22;5115;50.920;6.376;2023-02-15T03:47:52;3.30;99.90
10149;DHT22;5115;50.920;6.376;2023-02-15T03:50:24;3.40;99.90
10149;DHT22;5115;50.920;6.376;2023-02-15T03:53:12;3.40;99.90
10149;DHT22;5115;50.920;6.376;2023-02-15T03:55:39;3.50;99.90
10149;DHT22;5115;50.920;6.376;2023-02-15T03:58:05;3.40;99.90
10149;DHT22;5115;50.920;6.376;2023-02-15T04:01:00;3.40;99.90
10149;DHT22;5115;50.920;6.376;2023-02-15T04:03:50;3.40;99.90
10149;DHT22;5115;50.920;6.376;2023-02-15T04:06:17;3.40;99.90
10149;DHT22;5115;50.920;6.376;2023-02-15T04:08:43;3.40;99.90
10149;DHT22;5115;50.920;6.376;2023-02-15T04:11:27;3.40;99.90
10149;DHT22;5115;50.920;6.376;2023-02-15T04:13:52;3.40;99.90
10149;DHT22;5115;50.920;6.376;2023-02-15T04:16:23;3.30;99.90
10149;DHT22;5115;50.920;6.376;2023-02-15T04:18:48;3.30;99.90
10149;DHT22;5115;50.920;6.376;2023-02-15T04:21:33;3.30;99.90
10149;DHT22;5115;50.920;6.376;2023-02-15T04:24:17;3.30;99.90
10149;DHT22;5115;50.920;6.376;2023-02-15T04:27:02;3.30;99.90
10149;DHT22;5115;50.920;6.376;2023-02-15T04:29:29;3.40;99.90
10149;DHT22;5115;50.920;6.376;2023-02-15T04:31:56;3.30;99.90
10149;DHT22;5115;50.920;6.376;2023-02-15T04:34:22;3.30;99.90
10149;DHT22;5115;50.920;6.376;2023-02-15T04:36:48;3.30;99.90
10149;DHT22;5115;50.920;6.376;2023-02-15T04:39:14;3.20;99.90
10149;DHT22;5115;50.920;6.376;2023-02-15T04:41:40;3.20;99.90
10149;DHT22;5115;50.920;6.376;2023-02-15T04:44:06;3.10;99.90
10149;DHT22;5115;50.920;6.376;2023-02-15T04:46:31;3.20;99.90
10149;DHT22;5115;50.920;6.376;2023-02-15T04:48:57;3.20;99.90
10149;DHT22;5115;50.920;6.376;2023-02-15T04:51:23;3.20;99.90
10149;DHT22;5115;50.920;6.376;2023-02-15T04:53:48;2.10;99.90
10149;DHT22;5115;50.920;6.376;2023-02-15T04:56:14;3.10;99.90
10149;DHT22;5115;50.920;6.376;2023-02-15T04:58:40;3.10;99.90
10149;DHT22;5115;50.920;6.376;2023-02-15T05:01:07;3.10;99.90
10149;DHT22;5115;50.920;6.376;2023-02-15T05:03:33;3.10;99.90
10149;DHT22;5115;50.920;6.376;2023-02-15T05:05:59;3.10;99.90
10149;DHT22;5115;50.920;6.376;2023-02-15T05:08:24;3.20;99.90
10149;DHT22;5115;50.920;6.376;2023-02-15T05:10:50;3.20;99.90
10149;DHT22;5115;50.920;6.376;2023-02-15T05:13:16;3.10;99.90
10149;DHT22;5115;50.920;6.376;2023-02-15T05:15:49;3.00;99.90
10149;DHT22;5115;50.920;6.376;2023-02-15T05:18:16;2.90;99.90
10149;DHT22;5115;50.920;6.376;2023-02-15T05:20:42;2.90;99.90
10149;DHT22;5115;50.920;6.376;2023-02-15T05:23:07;2.90;99.90
10149;DHT22;5115;50.920;6.376;2023-02-15T05:25:33;2.90;99.90
10149;DHT22;5115;50.920;6.376;2023-02-15T05:28:17;2.90;99.90
10149;DHT22;5115;50.920;6.376;2023-02-15T05:30:50;2.80;99.90
10149;DHT22;5115;50.920;6.376;2023-02-15T05:33:16;2.80;99.90
10149;DHT22;5115;50.920;6.376;2023-02-15T05:35:42;2.80;99.90
10149;DHT22;5115;50.920;6.376;2023-02-15T05:38:08;2.80;99.90
10149;DHT22;5115;50.920;6.376;2023-02-15T05:40:33;2.80;99.90
10149;DHT22;5115;50.920;6.376;2023-02-15T05:42:59;2.80;99.90
10149;DHT22;5115;50.920;6.376;2023-02-15T05:45:25;1.50;99.90
10149;DHT22;5115;50.920;6.376;2023-02-15T05:47:50;2.70;99.90
10149;DHT22;5115;50.920;6.376;2023-02-15T05:50:16;2.80;99.90
10149;DHT22;5115;50.920;6.376;2023-02-15T05:52:42;2.70;99.90
10149;DHT22;5115;50.920;6.376;2023-02-15T05:55:08;2.80;99.90
10149;DHT22;5115;50.920;6.376;2023-02-15T05:57:34;2.80;99.90
10149;DHT22;5115;50.920;6.376;2023-02-15T06:00:00;2.80;99.90
10149;DHT22;5115;50.920;6.376;2023-02-15T06:02:25;2.80;99.90
10149;DHT22;5115;50.920;6.376;2023-02-15T06:04:51;2.80;99.90
10149;DHT22;5115;50.920;6.376;2023-02-15T06:07:17;2.70;99.90
10149;DHT22;5115;50.920;6.376;2023-02-15T06:09:42;2.70;99.90
10149;DHT22;5115;50.920;6.376;2023-02-15T06:12:08;2.70;99.90
10149;DHT22;5115;50.920;6.376;2023-02-15T06:14:33;2.70;99.90
10149;DHT22;5115;50.920;6.376;2023-02-15T06:17:00;2.80;99.90
10149;DHT22;5115;50.920;6.376;2023-02-15T06:19:25;2.70;99.90
10149;DHT22;5115;50.920;6.376;2023-02-15T06:21:51;2.70;99.90
10149;DHT22;5115;50.920;6.376;2023-02-15T06:24:16;2.70;99.90
10149;DHT22;5115;50.920;6.376;2023-02-15T06:26:42;2.70;99.90
10149;DHT22;5115;50.920;6.376;2023-02-15T06:29:08;2.70;99.90
10149;DHT22;5115;50.920;6.376;2023-02-15T06:31:33;2.70;99.90
10149;DHT22;5115;50.920;6.376;2023-02-15T06:33:59;2.80;99.90
10149;DHT22;5115;50.920;6.376;2023-02-15T06:36:28;2.80;99.90
10149;DHT22;5115;50.920;6.376;2023-02-15T06:38:54;2.80;99.90
10149;DHT22;5115;50.920;6.376;2023-02-15T06:41:19;2.80;99.90
10149;DHT22;5115;50.920;6.376;2023-02-15T06:43:45;2.80;99.90
10149;DHT22;5115;50.920;6.376;2023-02-15T06:46:10;2.80;99.90
10149;DHT22;5115;50.920;6.376;2023-02-15T06:48:39;2.80;99.90
10149;DHT22;5115;50.920;6.376;2023-02-15T06:51:05;2.90;99.90
10149;DHT22;5115;50.920;6.376;2023-02-15T06:53:30;2.90;99.90
10149;DHT22;5115;50.920;6.376;2023-02-15T06:56:06;3.00;99.90
10149;DHT22;5115;50.920;6.376;2023-02-15T06:58:35;3.10;99.90
10149;DHT22;5115;50.920;6.376;2023-02-15T07:01:01;3.20;99.90
10149;DHT22;5115;50.920;6.376;2023-02-15T07:03:26;3.20;99.90
10149;DHT22;5115;50.920;6.376;2023-02-15T07:05:56;3.30;99.90
10149;DHT22;5115;50.920;6.376;2023-02-15T07:08:24;3.20;99.90
10149;DHT22;5115;50.920;6.376;2023-02-15T07:10:51;3.20;99.90
10149;DHT22;5115;50.920;6.376;2023-02-15T07:13:17;3.30;99.90
10149;DHT22;5115;50.920;6.376;2023-02-15T07:15:43;3.30;99.90
10149;DHT22;5115;50.920;6.376;2023-02-15T07:18:09;3.40;99.90
10149;DHT22;5115;50.920;6.376;2023-02-15T07:20:36;3.40;99.90
10149;DHT22;5115;50.920;6.376;2023-02-15T07:23:02;3.40;99.90
10149;DHT22;5115;50.920;6.376;2023-02-15T07:25:28;3.70;99.90
10149;DHT22;5115;50.920;6.376;2023-02-15T07:27:58;4.30;99.90
10149;DHT22;5115;50.920;6.376;2023-02-15T07:30:23;5.40;99.90
10149;DHT22;5115;50.920;6.376;2023-02-15T07:32:49;6.30;99.90
10149;DHT22;5115;50.920;6.376;2023-02-15T07:35:33;7.10;99.90
10149;DHT22;5115;50.920;6.376;2023-02-15T07:37:59;7.70;99.90
10149;DHT22;5115;50.920;6.376;2023-02-15T07:40:25;8.30;99.90
10149;DHT22;5115;50.920;6.376;2023-02-15T07:42:51;8.90;99.90
10149;DHT22;5115;50.920;6.376;2023-02-15T07:45:18;9.30;99.90
10149;DHT22;5115;50.920;6.376;2023-02-15T07:47:44;9.80;99.90
10149;DHT22;5115;50.920;6.376;2023-02-15T07:50:09;10.50;99.90
10149;DHT22;5115;50.920;6.376;2023-02-15T07:52:35;10.90;99.90
10149;DHT22;5115;50.920;6.376;2023-02-15T07:55:00;11.10;99.90
10149;DHT22;5115;50.920;6.376;2023-02-15T07:57:26;11.50;99.90
10149;DHT22;5115;50.920;6.376;2023-02-15T07:59:51;11.90;99.90
10149;DHT22;5115;50.920;6.376;2023-02-15T08:02:17;12.10;99.90
10149;DHT22;5115;50.920;6.376;2023-02-15T08:04:42;12.30;99.90
10149;DHT22;5115;50.920;6.376;2023-02-15T08:07:08;12.50;99.90
10149;DHT22;5115;50.920;6.376;2023-02-15T08:09:33;12.70;99.90
10149;DHT22;5115;50.920;6.376;2023-02-15T08:11:59;13.00;99.90
10149;DHT22;5115;50.920;6.376;2023-02-15T08:14:27;13.60;99.90
10149;DHT22;5115;50.920;6.376;2023-02-15T08:16:54;13.70;99.90
10149;DHT22;5115;50.920;6.376;2023-02-15T08:19:27;13.90;99.90
10149;DHT22;5115;50.920;6.376;2023-02-15T08:21:56;14.00;99.90
10149;DHT22;5115;50.920;6.376;2023-02-15T08:24:27;14.30;99.90
10149;DHT22;5115;50.920;6.376;2023-02-15T08:26:53;14.40;99.90
10149;DHT22;5115;50.920;6.376;2023-02-15T08:29:21;14.10;99.90
10149;DHT22;5115;50.920;6.376;2023-02-15T08:31:48;13.80;99.90
10149;DHT22;5115;50.920;6.376;2023-02-15T08:34:16;14.10;99.90
10149;DHT22;5115;50.920;6.376;2023-02-15T08:36:42;14.00;99.90
10149;DHT22;5115;50.920;6.376;2023-02-15T08:39:11;14.40;99.90
10149;DHT22;5115;50.920;6.376;2023-02-15T08:41:38;15.00;99.90
10149;DHT22;5115;50.920;6.376;2023-02-15T08:44:05;15.30;99.90
10149;DHT22;5115;50.920;6.376;2023-02-15T08:46:34;15.30;99.90
10149;DHT22;5115;50.920;6.376;2023-02-15T08:48:59;15.60;99.90
10149;DHT22;5115;50.920;6.376;2023-02-15T08:51:34;16.40;99.90
10149;DHT22;5115;50.920;6.376;2023-02-15T08:54:02;16.30;99.90
10149;DHT22;5115;50.920;6.376;2023-02-15T08:56:32;15.90;99.90
10149;DHT22;5115;50.920;6.376;2023-02-15T08:58:58;15.90;99.90
10149;DHT22;5115;50.920;6.376;2023-02-15T09:01:26;15.70;99.90
10149;DHT22;5115;50.920;6.376;2023-02-15T09:03:59;15.90;99.90
10149;DHT22;5115;50.920;6.376;2023-02-15T09:06:25;15.60;99.90
10149;DHT22;5115;50.920;6.376;2023-02-15T09:08:53;15.80;99.90
10149;DHT22;5115;50.920;6.376;2023-02-15T09:11:21;15.70;99.90
10149;DHT22;5115;50.920;6.376;2023-02-15T09:13:53;15.60;99.90
10149;DHT22;5115;50.920;6.376;2023-02-15T09:16:19;15.30;99.90
10149;DHT22;5115;50.920;6.376;2023-02-15T09:18:45;15.40;99.90
10149;DHT22;5115;50.920;6.376;2023-02-15T09:21:13;14.80;99.90
10149;DHT22;5115;50.920;6.376;2023-02-15T09:23:39;14.90;99.90
10149;DHT22;5115;50.920;6.376;2023-02-15T09:26:07;15.40;99.90
10149;DHT22;5115;50.920;6.376;2023-02-15T09:28:33;15.60;99.90
10149;DHT22;5115;50.920;6.376;2023-02-15T09:33:39;16.00;99.90
10149;DHT22;5115;50.920;6.376;2023-02-15T09:36:13;15.90;99.90
10149;DHT22;5115;50.920;6.376;2023-02-15T09:38:39;14.90;99.90
10149;DHT22;5115;50.920;6.376;2023-02-15T09:47:34;16.90;99.90
10149;DHT22;5115;50.920;6.376;2023-02-15T09:59:01;17.10;99.90
10149;DHT22;5115;50.920;6.376;2023-02-15T10:12:26;18.10;99.30
10149;DHT22;5115;50.920;6.376;2023-02-15T10:15:16;18.30;99.60
10149;DHT22;5115;50.920;6.376;2023-02-15T10:23:13;18.00;99.80
10149;DHT22;5115;50.920;6.376;2023-02-15T10:25:51;17.80;99.60
10149;DHT22;5115;50.920;6.376;2023-02-15T10:28:41;17.00;99.90
10149;DHT22;5115;50.920;6.376;2023-02-15T10:31:35;16.80;99.90
10149;DHT22;5115;50.920;6.376;2023-02-15T10:39:50;15.90;99.90
10149;DHT22;5115;50.920;6.376;2023-02-15T10:53:54;15.30;99.90
10149;DHT22;5115;50.920;6.376;2023-02-15T10:59:01;15.30;99.90
10149;DHT22;5115;50.920;6.376;2023-02-15T11:07:04;15.40;99.90
10149;DHT22;5115;50.920;6.376;2023-02-15T11:09:41;16.50;99.90
10149;DHT22;5115;50.920;6.376;2023-02-15T11:12:14;15.50;99.90
10149;DHT22;5115;50.920;6.376;2023-02-15T11:17:28;15.20;99.90
10149;DHT22;5115;50.920;6.376;2023-02-15T11:22:33;15.80;99.90
10149;DHT22;5115;50.920;6.376;2023-02-15T11:25:01;16.30;99.90
10149;DHT22;5115;50.920;6.376;2023-02-15T11:27:31;16.20;99.90
10149;DHT22;5115;50.920;6.376;2023-02-15T11:30:14;15.80;99.90
10149;DHT22;5115;50.920;6.376;2023-02-15T11:32:43;15.70;99.90
10149;DHT22;5115;50.920;6.376;2023-02-15T11:35:14;15.70;99.90
10149;DHT22;5115;50.920;6.376;2023-02-15T11:37:48;15.40;99.90
10149;DHT22;5115;50.920;6.376;2023-02-15T11:40:33;15.70;99.90
10149;DHT22;5115;50.920;6.376;2023-02-15T11:43:39;15.60;99.90
10149;DHT22;5115;50.920;6.376;2023-02-15T11:45:58;15.50;99.90
10149;DHT22;5115;50.920;6.376;2023-02-15T11:48:23;15.40;99.90
10149;DHT22;5115;50.920;6.376;2023-02-15T11:50:49;15.40;99.90
10149;DHT22;5115;50.920;6.376;2023-02-15T11:53:20;15.40;99.90
10149;DHT22;5115;50.920;6.376;2023-02-15T11:55:48;15.10;99.90
10149;DHT22;5115;50.920;6.376;2023-02-15T12:03:46;15.30;99.90
10149;DHT22;5115;50.920;6.376;2023-02-15T12:06:23;15.30;99.90
10149;DHT22;5115;50.920;6.376;2023-02-15T12:09:17;15.40;99.90
10149;DHT22;5115;50.920;6.376;2023-02-15T12:11:45;15.50;99.90
10149;DHT22;5115;50.920;6.376;2023-02-15T12:14:12;15.30;99.90
10149;DHT22;5115;50.920;6.376;2023-02-15T12:16:49;15.10;99.90
10149;DHT22;5115;50.920;6.376;2023-02-15T12:19:31;14.90;99.90
10149;DHT22;5115;50.920;6.376;2023-02-15T12:21:58;14.70;99.90
10149;DHT22;5115;50.920;6.376;2023-02-15T12:24:30;14.80;99.90
10149;DHT22;5115;50.920;6.376;2023-02-15T12:27:16;15.40;99.90
10149;DHT22;5115;50.920;6.376;2023-02-15T12:29:46;14.40;99.90
10149;DHT22;5115;50.920;6.376;2023-02-15T12:32:19;14.70;99.90
10149;DHT22;5115;50.920;6.376;2023-02-15T12:34:47;14.80;99.90
10149;DHT22;5115;50.920;6.376;2023-02-15T12:37:21;14.90;99.90
10149;DHT22;5115;50.920;6.376;2023-02-15T12:42:18;14.70;99.90
10149;DHT22;5115;50.920;6.376;2023-02-15T12:45:00;14.70;99.90
10149;DHT22;5115;50.920;6.376;2023-02-15T12:47:27;14.70;99.90
10149;DHT22;5115;50.920;6.376;2023-02-15T12:52:36;14.60;99.90
10149;DHT22;5115;50.920;6.376;2023-02-15T12:57:47;14.40;99.90
10149;DHT22;5115;50.920;6.376;2023-02-15T13:00:27;14.40;99.90
10149;DHT22;5115;50.920;6.376;2023-02-15T13:02:55;14.40;99.90
10149;DHT22;5115;50.920;6.376;2023-02-15T13:08:00;14.40;99.90
10149;DHT22;5115;50.920;6.376;2023-02-15T13:10:33;14.40;99.90
10149;DHT22;5115;50.920;6.376;2023-02-15T13:13:00;14.30;99.90
10149;DHT22;5115;50.920;6.376;2023-02-15T13:15:29;14.30;99.90
10149;DHT22;5115;50.920;6.376;2023-02-15T13:17:58;14.30;99.90
10149;DHT22;5115;50.920;6.376;2023-02-15T13:20:25;14.40;99.90
10149;DHT22;5115;50.920;6.376;2023-02-15T13:22:57;14.40;99.90
10149;DHT22;5115;50.920;6.376;2023-02-15T13:25:26;14.30;99.90
10149;DHT22;5115;50.920;6.376;2023-02-15T13:27:55;14.20;99.90
10149;DHT22;5115;50.920;6.376;2023-02-15T13:30:25;14.20;99.90
10149;DHT22;5115;50.920;6.376;2023-02-15T13:33:14;14.30;99.90
10149;DHT22;5115;50.920;6.376;2023-02-15T13:35:50;14.30;99.90
10149;DHT22;5115;50.920;6.376;2023-02-15T13:41:00;14.50;99.90
10149;DHT22;5115;50.920;6.376;2023-02-15T13:43:52;14.60;99.90
10149;DHT22;5115;50.920;6.376;2023-02-15T13:49:09;14.60;99.90
10149;DHT22;5115;50.920;6.376;2023-02-15T13:51:45;14.60;99.90
10149;DHT22;5115;50.920;6.376;2023-02-15T14:08:40;13.90;99.90
10149;DHT22;5115;50.920;6.376;2023-02-15T14:11:19;13.70;99.90
10149;DHT22;5115;50.920;6.376;2023-02-15T14:19:59;13.80;99.90
10149;DHT22;5115;50.920;6.376;2023-02-15T14:22:35;13.70;99.90
10149;DHT22;5115;50.920;6.376;2023-02-15T14:25:25;13.80;99.90
10149;DHT22;5115;50.920;6.376;2023-02-15T14:28:15;13.90;99.90
10149;DHT22;5115;50.920;6.376;2023-02-15T14:30:46;13.90;99.90
10149;DHT22;5115;50.920;6.376;2023-02-15T14:35:47;14.20;99.90
10149;DHT22;5115;50.920;6.376;2023-02-15T14:38:44;14.10;99.90
10149;DHT22;5115;50.920;6.376;2023-02-15T14:47:04;14.10;99.90
10149;DHT22;5115;50.920;6.376;2023-02-15T14:49:32;14.00;99.90
10149;DHT22;5115;50.920;6.376;2023-02-15T14:52:06;14.10;99.90
10149;DHT22;5115;50.920;6.376;2023-02-15T14:59:53;14.10;99.90
10149;DHT22;5115;50.920;6.376;2023-02-15T15:02:49;14.00;99.90
10149;DHT22;5115;50.920;6.376;2023-02-15T15:12:46;13.80;99.90
10149;DHT22;5115;50.920;6.376;2023-02-15T15:17:56;13.90;99.90
10149;DHT22;5115;50.920;6.376;2023-02-15T15:23:33;13.60;99.90
10149;DHT22;5115;50.920;6.376;2023-02-15T15:26:20;13.60;99.90
10149;DHT22;5115;50.920;6.376;2023-02-15T15:34:22;13.40;99.90
10149;DHT22;5115;50.920;6.376;2023-02-15T15:37:17;13.40;99.90
10149;DHT22;5115;50.920;6.376;2023-02-15T15:48:37;13.20;99.90
10149;DHT22;5115;50.920;6.376;2023-02-15T15:51:28;13.10;99.90
10149;DHT22;5115;50.920;6.376;2023-02-15T15:53:55;13.10;99.90
10149;DHT22;5115;50.920;6.376;2023-02-15T15:56:25;13.10;99.90
10149;DHT22;5115;50.920;6.376;2023-02-15T15:58:55;13.00;99.90
10149;DHT22;5115;50.920;6.376;2023-02-15T16:01:27;12.90;99.90
10149;DHT22;5115;50.920;6.376;2023-02-15T16:03:55;12.70;99.90
10149;DHT22;5115;50.920;6.376;2023-02-15T16:08:56;12.70;99.90
10149;DHT22;5115;50.920;6.376;2023-02-15T16:11:27;12.80;99.90
10149;DHT22;5115;50.920;6.376;2023-02-15T16:13:55;12.80;99.90
10149;DHT22;5115;50.920;6.376;2023-02-15T16:16:23;12.80;99.90
10149;DHT22;5115;50.920;6.376;2023-02-15T16:18:50;12.80;99.90
10149;DHT22;5115;50.920;6.376;2023-02-15T16:21:23;12.80;99.90
10149;DHT22;5115;50.920;6.376;2023-02-15T16:24:31;12.80;99.90
10149;DHT22;5115;50.920;6.376;2023-02-15T16:29:47;12.70;99.90
10149;DHT22;5115;50.920;6.376;2023-02-15T16:32:20;12.60;99.90
10149;DHT22;5115;50.920;6.376;2023-02-15T16:35:02;12.60;99.90
10149;DHT22;5115;50.920;6.376;2023-02-15T16:37:32;12.50;99.90
10149;DHT22;5115;50.920;6.376;2023-02-15T16:39:58;12.40;99.90
10149;DHT22;5115;50.920;6.376;2023-02-15T16:42:24;12.40;99.90
10149;DHT22;5115;50.920;6.376;2023-02-15T16:45:13;12.30;99.90
10149;DHT22;5115;50.920;6.376;2023-02-15T16:47:44;12.20;99.90
10149;DHT22;5115;50.920;6.376;2023-02-15T16:50:22;12.20;99.90
10149;DHT22;5115;50.920;6.376;2023-02-15T16:52:49;12.10;99.90
10149;DHT22;5115;50.920;6.376;2023-02-15T16:55:26;12.10;99.90
10149;DHT22;5115;50.920;6.376;2023-02-15T16:57:59;12.00;99.90
10149;DHT22;5115;50.920;6.376;2023-02-15T17:00:29;12.00;99.90
10149;DHT22;5115;50.920;6.376;2023-02-15T17:05:55;11.80;99.90
10149;DHT22;5115;50.920;6.376;2023-02-15T17:08:35;11.80;99.90
10149;DHT22;5115;50.920;6.376;2023-02-15T17:13:35;12.50;99.90
10149;DHT22;5115;50.920;6.376;2023-02-15T17:18:31;11.70;99.90
10149;DHT22;5115;50.920;6.376;2023-02-15T17:21:08;11.70;99.90
10149;DHT22;5115;50.920;6.376;2023-02-15T17:23:40;11.60;99.90
10149;DHT22;5115;50.920;6.376;2023-02-15T17:26:23;11.60;99.90
10149;DHT22;5115;50.920;6.376;2023-02-15T17:28:55;11.50;99.90
10149;DHT22;5115;50.920;6.376;2023-02-15T17:31:30;11.50;99.90
10149;DHT22;5115;50.920;6.376;2023-02-15T17:33:58;11.40;99.90
10149;DHT22;5115;50.920;6.376;2023-02-15T17:36:28;11.40;99.90
10149;DHT22;5115;50.920;6.376;2023-02-15T17:41:31;11.70;99.90
10149;DHT22;5115;50.920;6.376;2023-02-15T17:43:57;11.10;99.90
10149;DHT22;5115;50.920;6.376;2023-02-15T17:46:24;10.90;99.90
10149;DHT22;5115;50.920;6.376;2023-02-15T17:48:52;10.90;99.90
10149;DHT22;5115;50.920;6.376;2023-02-15T17:51:18;10.90;99.90
10149;DHT22;5115;50.920;6.376;2023-02-15T17:53:45;10.90;99.90
10149;DHT22;5115;50.920;6.376;2023-02-15T17:56:32;10.90;99.90
10149;DHT22;5115;50.920;6.376;2023-02-15T17:58:57;10.90;99.90
10149;DHT22;5115;50.920;6.376;2023-02-15T18:01:23;10.80;99.90
10149;DHT22;5115;50.920;6.376;2023-02-15T18:04:08;10.80;99.90
10149;DHT22;5115;50.920;6.376;2023-02-15T18:06:54;10.70;99.90
10149;DHT22;5115;50.920;6.376;2023-02-15T18:09:38;10.70;99.90
10149;DHT22;5115;50.920;6.376;2023-02-15T18:12:29;10.60;99.90
10149;DHT22;5115;50.920;6.376;2023-02-15T18:14:55;10.50;99.90
10149;DHT22;5115;50.920;6.376;2023-02-15T18:17:26;10.50;99.90
10149;DHT22;5115;50.920;6.376;2023-02-15T18:19:53;10.40;99.90
10149;DHT22;5115;50.920;6.376;2023-02-15T18:22:20;10.30;99.90
10149;DHT22;5115;50.920;6.376;2023-02-15T18:24:47;10.30;99.90
10149;DHT22;5115;50.920;6.376;2023-02-15T18:27:14;10.10;99.90
10149;DHT22;5115;50.920;6.376;2023-02-15T18:29:40;10.10;99.90
10149;DHT22;5115;50.920;6.376;2023-02-15T18:32:16;10.10;99.90
10149;DHT22;5115;50.920;6.376;2023-02-15T18:34:42;10.00;99.90
10149;DHT22;5115;50.920;6.376;2023-02-15T18:37:18;10.00;99.90
10149;DHT22;5115;50.920;6.376;2023-02-15T18:39:49;9.80;99.90
10149;DHT22;5115;50.920;6.376;2023-02-15T18:44:48;9.70;99.90
10149;DHT22;5115;50.920;6.376;2023-02-15T18:47:13;9.70;99.90
10149;DHT22;5115;50.920;6.376;2023-02-15T18:49:39;9.60;99.90
10149;DHT22;5115;50.920;6.376;2023-02-15T18:52:05;9.40;99.90
10149;DHT22;5115;50.920;6.376;2023-02-15T18:54:31;9.30;99.90
10149;DHT22;5115;50.920;6.376;2023-02-15T18:57:00;9.20;99.90
10149;DHT22;5115;50.920;6.376;2023-02-15T18:59:26;9.20;99.90
10149;DHT22;5115;50.920;6.376;2023-02-15T19:01:53;9.10;99.90
10149;DHT22;5115;50.920;6.376;2023-02-15T19:04:19;9.10;99.90
10149;DHT22;5115;50.920;6.376;2023-02-15T19:06:46;9.10;99.90
10149;DHT22;5115;50.920;6.376;2023-02-15T19:09:18;9.00;99.90
10149;DHT22;5115;50.920;6.376;2023-02-15T19:11:51;8.90;99.90
10149;DHT22;5115;50.920;6.376;2023-02-15T19:14:25;9.90;99.90
10149;DHT22;5115;50.920;6.376;2023-02-15T19:16:52;8.70;99.90
10149;DHT22;5115;50.920;6.376;2023-02-15T19:19:19;8.50;99.90
10149;DHT22;5115;50.920;6.376;2023-02-15T19:21:45;8.40;99.90